createdAt,value
2023-05-06T00:01:58.471Z,100.00
2023-05-06T00:04:25.243Z,100.00
2023-05-06T00:06:51.907Z,100.00
2023-05-06T00:09:18.642Z,100.00
2023-05-06T00:11:46.060Z,100.00
2023-05-06T00:14:12.828Z,100.00
2023-05-06T00:16:39.561Z,100.00
2023-05-06T00:32:09.156Z,100.00
2023-05-06T00:34:35.888Z,100.00
2023-05-06T00:37:02.527Z,100.00
2023-05-06T00:39:30.200Z,100.00
2023-05-06T00:42:02.559Z,100.00
2023-05-06T00:44:30.242Z,100.00
2023-05-06T00:46:57.376Z,100.00
2023-05-06T00:49:24.232Z,100.00
2023-05-06T00:51:54.139Z,100.00
2023-05-06T00:54:21.705Z,100.00
2023-05-06T00:56:48.524Z,100.00
2023-05-06T00:59:15.748Z,100.00
2023-05-06T01:01:42.448Z,100.00
2023-05-06T01:04:09.167Z,100.00
2023-05-06T01:06:50.047Z,100.00
2023-05-06T01:09:24.932Z,100.00
2023-05-06T01:12:06.144Z,100.00
2023-05-06T01:14:41.867Z,100.00
2023-05-06T01:17:12.815Z,100.00
2023-05-06T01:19:46.804Z,100.00
2023-05-06T01:22:13.760Z,100.00
2023-05-06T01:24:42.313Z,100.00
2023-05-06T01:27:10.940Z,100.00
2023-05-06T01:48:55.270Z,100.00
2023-05-06T01:51:28.013Z,100.00
2023-05-06T01:54:01.754Z,100.00
2023-05-06T01:56:34.443Z,100.00
2023-05-06T01:59:07.226Z,100.00
2023-05-06T02:01:39.947Z,100.00
2023-05-06T02:04:12.713Z,100.00
2023-05-06T02:06:45.473Z,100.00
2023-05-06T02:09:18.228Z,100.00
2023-05-06T02:11:50.990Z,100.00
2023-05-06T02:14:23.912Z,100.00
2023-05-06T02:16:56.754Z,100.00
2023-05-06T02:19:29.534Z,100.00
2023-05-06T02:22:02.263Z,100.00
2023-05-06T02:24:35.016Z,100.00
2023-05-06T02:27:07.774Z,100.00
2023-05-06T02:29:40.539Z,100.00
2023-05-06T02:32:13.272Z,100.00
2023-05-06T02:34:46.102Z,100.00
2023-05-06T02:37:19.195Z,100.00
2023-05-06T02:42:29.464Z,100.00
2023-05-06T02:45:02.761Z,100.00
2023-05-06T02:47:35.653Z,100.00
2023-05-06T02:50:08.898Z,100.00
2023-05-06T02:52:41.720Z,100.00
2023-05-06T02:55:14.560Z,100.00
2023-05-06T02:57:47.315Z,100.00
2023-05-06T03:00:20.532Z,100.00
2023-05-06T03:02:53.392Z,100.00
2023-05-06T03:05:26.348Z,100.00
2023-05-06T03:07:59.083Z,100.00
2023-05-06T03:13:09.666Z,100.00
2023-05-06T03:15:36.304Z,100.00
2023-05-06T03:18:03.152Z,100.00
2023-05-06T03:20:29.928Z,100.00
2023-05-06T03:22:56.740Z,100.00
2023-05-06T03:25:23.434Z,100.00
2023-05-06T03:27:50.077Z,100.00
2023-05-06T03:30:16.808Z,100.00
2023-05-06T03:32:43.827Z,100.00
2023-05-06T03:35:11.913Z,100.00
2023-05-06T03:37:38.783Z,100.00
2023-05-06T03:40:06.370Z,100.00
2023-05-06T03:42:33.064Z,100.00
2023-05-06T03:44:59.783Z,100.00
2023-05-06T03:47:26.469Z,100.00
2023-05-06T03:49:53.282Z,100.00
2023-05-06T03:52:20.017Z,100.00
2023-05-06T03:54:46.732Z,100.00
2023-05-06T03:57:13.453Z,100.00
2023-05-06T03:59:40.096Z,100.00
2023-05-06T04:02:06.889Z,100.00
2023-05-06T04:04:34.666Z,100.00
2023-05-06T04:07:02.277Z,100.00
2023-05-06T04:09:28.966Z,100.00
2023-05-06T04:11:56.115Z,100.00
2023-05-06T04:14:22.807Z,100.00
2023-05-06T04:16:49.569Z,100.00
2023-05-06T04:19:17.996Z,100.00
2023-05-06T04:24:23.182Z,100.00
2023-05-06T04:26:49.936Z,100.00
2023-05-06T04:29:16.630Z,100.00
2023-05-06T04:31:43.437Z,100.00
2023-05-06T04:34:11.415Z,100.00
2023-05-06T04:39:10.840Z,100.00
2023-05-06T04:41:38.331Z,100.00
2023-05-06T04:44:05.189Z,100.00
2023-05-06T04:46:31.820Z,100.00
2023-05-06T04:48:58.496Z,100.00
2023-05-06T04:51:25.273Z,100.00
2023-05-06T04:53:52.842Z,100.00
2023-05-06T04:56:19.610Z,100.00
2023-05-06T04:58:46.246Z,100.00
2023-05-06T05:01:12.973Z,100.00
2023-05-06T05:03:39.715Z,100.00
2023-05-06T05:06:06.741Z,100.00
2023-05-06T05:08:33.459Z,100.00
2023-05-06T05:11:00.201Z,100.00
2023-05-06T05:13:26.958Z,100.00
2023-05-06T05:15:56.544Z,100.00
2023-05-06T05:18:23.359Z,100.00
2023-05-06T05:20:50.170Z,100.00
2023-05-06T05:23:16.840Z,100.00
2023-05-06T05:25:43.511Z,100.00
2023-05-06T05:28:10.171Z,100.00
2023-05-06T05:30:36.801Z,100.00
2023-05-06T05:35:35.013Z,100.00
2023-05-06T05:38:02.086Z,100.00
2023-05-06T05:40:28.731Z,100.00
2023-05-06T05:42:55.625Z,100.00
2023-05-06T05:45:22.289Z,100.00
2023-05-06T05:47:49.060Z,100.00
2023-05-06T05:50:15.777Z,100.00
2023-05-06T05:52:42.373Z,100.00
2023-05-06T05:55:09.816Z,100.00
2023-05-06T05:57:37.102Z,100.00
2023-05-06T06:00:06.010Z,100.00
2023-05-06T06:02:34.703Z,100.00
2023-05-06T06:05:01.540Z,100.00
2023-05-06T06:07:28.343Z,100.00
2023-05-06T06:09:55.013Z,100.00
2023-05-06T06:12:21.656Z,100.00
2023-05-06T06:14:48.738Z,99.92
2023-05-06T06:19:51.380Z,95.88
2023-05-06T06:22:18.256Z,95.73
2023-05-06T06:24:44.973Z,96.23
2023-05-06T06:27:11.644Z,94.99
2023-05-06T06:32:09.739Z,96.66
2023-05-06T06:34:36.845Z,97.29
2023-05-06T06:37:03.521Z,98.38
2023-05-06T06:39:30.203Z,95.26
2023-05-06T06:41:58.484Z,97.10
2023-05-06T06:44:25.214Z,97.07
2023-05-06T06:46:51.946Z,97.40
2023-05-06T06:49:18.578Z,96.53
2023-05-06T06:54:23.144Z,100.00
2023-05-06T06:56:50.001Z,100.00
2023-05-06T06:59:16.705Z,100.00
2023-05-06T07:04:21.913Z,92.85
2023-05-06T07:09:21.722Z,95.03
2023-05-06T07:11:48.378Z,95.25
2023-05-06T07:14:15.051Z,93.96
2023-05-06T07:16:42.958Z,98.36
2023-05-06T07:19:11.242Z,94.32
2023-05-06T07:21:37.874Z,95.86
2023-05-06T07:24:04.660Z,96.49
2023-05-06T07:26:31.328Z,96.92
2023-05-06T07:28:58.020Z,95.91
2023-05-06T07:31:24.813Z,90.39
2023-05-06T07:36:29.630Z,89.73
2023-05-06T07:38:56.420Z,91.15
2023-05-06T07:41:23.073Z,93.29
2023-05-06T07:43:49.701Z,94.95
2023-05-06T07:46:16.781Z,91.51
2023-05-06T07:48:43.535Z,92.53
2023-05-06T07:51:10.215Z,92.08
2023-05-06T07:53:38.319Z,91.93
2023-05-06T07:56:05.246Z,86.27
2023-05-06T07:58:32.250Z,84.22
2023-05-06T08:00:59.093Z,84.22
2023-05-06T08:03:26.186Z,85.03
2023-05-06T08:05:53.848Z,85.14
2023-05-06T08:08:21.737Z,83.67
2023-05-06T08:10:48.376Z,84.52
2023-05-06T08:13:15.273Z,79.04
2023-05-06T08:15:41.986Z,80.41
2023-05-06T08:18:18.395Z,77.88
2023-05-06T08:20:48.819Z,79.04
2023-05-06T08:23:15.495Z,80.72
2023-05-06T08:25:42.376Z,73.21
2023-05-06T08:28:09.030Z,73.37
2023-05-06T08:30:35.975Z,74.57
2023-05-06T08:33:02.733Z,70.42
2023-05-06T08:35:29.437Z,70.31
2023-05-06T08:37:56.201Z,67.06
2023-05-06T08:40:24.171Z,70.43
2023-05-06T08:42:51.119Z,70.60
2023-05-06T08:45:18.066Z,71.38
2023-05-06T08:47:45.202Z,71.46
2023-05-06T08:50:12.092Z,71.67
2023-05-06T08:52:39.792Z,70.43
2023-05-06T08:55:07.690Z,69.23
2023-05-06T08:57:34.883Z,64.94
2023-05-06T09:00:01.985Z,65.19
2023-05-06T09:02:29.079Z,67.44
2023-05-06T09:04:57.078Z,64.36
2023-05-06T09:07:24.874Z,67.20
2023-05-06T09:09:51.987Z,66.98
2023-05-06T09:12:18.737Z,66.67
2023-05-06T09:14:46.838Z,65.86
2023-05-06T09:17:24.438Z,61.55
2023-05-06T09:19:53.515Z,62.30
2023-05-06T09:22:22.423Z,63.96
2023-05-06T09:24:56.827Z,62.59
2023-05-06T09:30:07.461Z,65.65
2023-05-06T09:32:36.807Z,63.37
2023-05-06T09:35:06.365Z,65.25
2023-05-06T09:37:33.083Z,64.62
2023-05-06T09:40:01.335Z,63.31
2023-05-06T09:42:31.065Z,60.16
2023-05-06T09:45:02.222Z,61.54
2023-05-06T09:47:34.436Z,58.61
2023-05-06T09:50:03.575Z,61.51
2023-05-06T09:52:31.377Z,60.64
2023-05-06T09:54:58.529Z,61.34
2023-05-06T09:57:26.009Z,60.98
2023-05-06T09:59:54.358Z,61.18
2023-05-06T10:02:23.673Z,61.61
2023-05-06T10:04:51.503Z,66.38
2023-05-06T10:09:54.748Z,64.82
2023-05-06T10:12:21.869Z,64.13
2023-05-06T10:14:48.500Z,62.10
2023-05-06T10:17:18.314Z,58.46
2023-05-06T10:19:52.494Z,59.41
2023-05-06T10:22:31.049Z,57.60
2023-05-06T10:25:06.528Z,56.23
2023-05-06T10:27:37.786Z,55.72
2023-05-06T10:30:05.102Z,55.75
2023-05-06T10:32:33.169Z,55.45
2023-05-06T10:35:09.764Z,54.12
2023-05-06T10:37:38.373Z,53.93
2023-05-06T10:40:05.985Z,53.23
2023-05-06T10:42:38.252Z,51.96
2023-05-06T10:45:06.128Z,51.70
2023-05-06T10:47:57.974Z,52.52
2023-05-06T10:50:26.961Z,51.88
2023-05-06T10:52:59.142Z,50.85
2023-05-06T10:55:28.270Z,49.64
2023-05-06T10:57:57.039Z,50.71
2023-05-06T11:00:24.283Z,53.01
2023-05-06T11:02:56.400Z,50.68
2023-05-06T11:05:24.135Z,53.46
2023-05-06T11:07:52.510Z,53.17
2023-05-06T11:10:34.255Z,51.81
2023-05-06T11:13:20.371Z,49.93
2023-05-06T11:15:47.594Z,46.71
2023-05-06T11:18:34.952Z,49.95
2023-05-06T11:21:02.773Z,50.97
2023-05-06T11:23:50.769Z,51.47
2023-05-06T11:26:17.564Z,51.21
2023-05-06T11:28:46.601Z,50.22
2023-05-06T11:31:14.842Z,50.29
2023-05-06T11:33:47.919Z,48.86
2023-05-06T11:36:17.370Z,48.17
2023-05-06T11:38:52.921Z,49.66
2023-05-06T11:41:20.208Z,48.00
2023-05-06T11:43:50.115Z,46.55
2023-05-06T11:46:19.134Z,46.98
2023-05-06T11:48:46.283Z,46.14
2023-05-06T11:51:12.953Z,46.79
2023-05-06T11:53:39.873Z,45.56
2023-05-06T11:56:07.280Z,45.85
2023-05-06T11:58:34.472Z,45.71
2023-05-06T12:01:04.119Z,45.67
2023-05-06T12:03:31.984Z,44.63
2023-05-06T12:05:59.750Z,44.47
2023-05-06T12:08:33.308Z,44.72
2023-05-06T12:11:02.377Z,46.23
2023-05-06T12:13:29.814Z,45.24
2023-05-06T12:15:59.116Z,45.89
2023-05-06T12:18:26.781Z,44.19
2023-05-06T12:20:55.148Z,44.14
2023-05-06T12:23:22.230Z,44.36
2023-05-06T12:28:37.401Z,44.58
2023-05-06T12:31:21.085Z,44.35
2023-05-06T12:33:51.560Z,44.91
2023-05-06T12:36:19.716Z,44.77
2023-05-06T12:38:57.287Z,48.60
2023-05-06T12:44:36.483Z,47.09
2023-05-06T12:47:07.615Z,47.09
2023-05-06T12:50:01.151Z,44.63
2023-05-06T12:52:30.268Z,42.88
2023-05-06T12:54:57.969Z,43.38
2023-05-06T12:57:24.711Z,42.89
2023-05-06T12:59:51.440Z,44.34
2023-05-06T13:02:18.875Z,44.87
2023-05-06T13:04:47.029Z,42.85
2023-05-06T13:07:13.952Z,43.55
2023-05-06T13:09:40.699Z,43.50
2023-05-06T13:12:07.538Z,43.54
2023-05-06T13:14:34.176Z,42.71
2023-05-06T13:17:07.002Z,44.51
2023-05-06T13:19:33.970Z,43.39
2023-05-06T13:22:01.468Z,41.79
2023-05-06T13:24:28.684Z,42.42
2023-05-06T13:26:57.470Z,43.92
2023-05-06T13:29:24.754Z,44.33
2023-05-06T13:31:51.825Z,43.10
2023-05-06T13:34:18.879Z,45.83
2023-05-06T13:36:46.919Z,43.23
2023-05-06T13:39:13.624Z,42.88
2023-05-06T13:41:40.297Z,41.79
2023-05-06T13:44:06.921Z,43.70
2023-05-06T13:46:33.798Z,44.09
2023-05-06T13:49:00.718Z,43.47
2023-05-06T13:51:30.172Z,43.97
2023-05-06T13:53:56.884Z,41.06
2023-05-06T13:56:23.563Z,40.96
2023-05-06T13:58:50.452Z,42.94
2023-05-06T14:01:17.131Z,42.77
2023-05-06T14:03:43.830Z,40.96
2023-05-06T14:06:10.562Z,39.74
2023-05-06T14:08:37.444Z,39.33
2023-05-06T14:11:04.107Z,40.40
2023-05-06T14:13:32.042Z,41.75
2023-05-06T14:15:59.632Z,41.26
2023-05-06T14:18:27.309Z,39.99
2023-05-06T14:20:54.576Z,40.77
2023-05-06T14:23:21.329Z,40.36
2023-05-06T14:25:48.404Z,41.38
2023-05-06T14:28:15.896Z,42.04
2023-05-06T14:30:43.126Z,41.31
2023-05-06T14:33:10.232Z,42.07
2023-05-06T14:35:40.903Z,40.48
2023-05-06T14:38:07.691Z,40.22
2023-05-06T14:40:36.170Z,42.08
2023-05-06T14:43:03.441Z,41.74
2023-05-06T14:45:30.140Z,41.15
2023-05-06T14:47:57.043Z,41.28
2023-05-06T14:52:54.977Z,41.08
2023-05-06T14:55:21.695Z,41.55
2023-05-06T14:57:48.610Z,42.36
2023-05-06T15:00:17.045Z,40.05
2023-05-06T15:02:43.901Z,41.13
2023-05-06T15:05:12.485Z,40.96
2023-05-06T15:07:39.393Z,40.83
2023-05-06T15:10:06.350Z,40.37
2023-05-06T15:12:33.692Z,41.37
2023-05-06T15:15:00.681Z,42.78
2023-05-06T15:17:27.437Z,42.01
2023-05-06T15:19:54.304Z,41.78
2023-05-06T15:22:20.952Z,41.58
2023-05-06T15:24:47.602Z,41.78
2023-05-06T15:27:15.338Z,43.10
2023-05-06T15:29:42.002Z,43.35
2023-05-06T15:32:08.808Z,42.66
2023-05-06T15:34:36.021Z,42.60
2023-05-06T15:37:02.705Z,42.84
2023-05-06T15:39:29.374Z,42.24
2023-05-06T15:41:59.219Z,41.43
2023-05-06T15:44:27.194Z,42.72
2023-05-06T15:46:53.979Z,42.30
2023-05-06T15:49:48.931Z,41.60
2023-05-06T15:52:07.445Z,42.06
2023-05-06T15:54:37.620Z,42.96
2023-05-06T15:57:07.523Z,42.77
2023-05-06T15:59:34.378Z,42.48
2023-05-06T16:02:26.225Z,41.81
2023-05-06T16:04:47.879Z,40.69
2023-05-06T16:07:15.384Z,42.68
2023-05-06T16:09:42.954Z,40.62
2023-05-06T16:12:10.259Z,40.95
2023-05-06T16:14:37.023Z,43.21
2023-05-06T16:17:03.765Z,41.88
2023-05-06T16:19:35.119Z,43.73
2023-05-06T16:22:02.647Z,41.69
2023-05-06T16:24:29.368Z,41.77
2023-05-06T16:26:56.435Z,41.40
2023-05-06T16:29:23.147Z,44.22
2023-05-06T16:31:49.958Z,44.07
2023-05-06T16:34:16.731Z,44.57
2023-05-06T16:36:43.812Z,44.71
2023-05-06T16:39:10.464Z,44.15
2023-05-06T16:41:37.087Z,43.55
2023-05-06T16:44:03.787Z,45.46
2023-05-06T16:46:30.561Z,45.18
2023-05-06T16:48:57.256Z,46.58
2023-05-06T16:51:24.419Z,48.08
2023-05-06T16:53:51.141Z,48.71
2023-05-06T16:56:18.130Z,51.05
2023-05-06T16:58:44.835Z,49.02
2023-05-06T17:01:11.997Z,49.21
2023-05-06T17:03:38.818Z,50.55
2023-05-06T17:06:05.849Z,49.18
2023-05-06T17:08:36.015Z,49.92
2023-05-06T17:11:06.430Z,50.56
2023-05-06T17:13:33.455Z,50.19
2023-05-06T17:16:00.270Z,52.74
2023-05-06T17:18:26.984Z,52.89
2023-05-06T17:20:56.469Z,53.90
2023-05-06T17:23:24.320Z,54.21
2023-05-06T17:25:51.675Z,54.84
2023-05-06T17:28:18.977Z,54.81
2023-05-06T17:30:46.282Z,54.13
2023-05-06T17:33:13.063Z,55.85
2023-05-06T17:35:39.780Z,56.96
2023-05-06T17:38:06.614Z,57.08
2023-05-06T17:40:33.482Z,57.03
2023-05-06T17:43:00.306Z,55.45
2023-05-06T17:45:28.755Z,57.52
2023-05-06T17:47:56.664Z,58.29
2023-05-06T17:50:23.556Z,60.19
2023-05-06T17:52:52.461Z,60.10
2023-05-06T17:55:21.872Z,58.78
2023-05-06T17:57:48.968Z,57.67
2023-05-06T18:00:16.838Z,57.00
2023-05-06T18:02:44.092Z,56.31
2023-05-06T18:05:11.684Z,56.55
2023-05-06T18:07:38.704Z,57.37
2023-05-06T18:10:06.456Z,57.09
2023-05-06T18:12:33.121Z,58.60
2023-05-06T18:15:00.892Z,58.24
2023-05-06T18:17:27.553Z,57.18
2023-05-06T18:19:54.272Z,57.85
2023-05-06T18:22:20.903Z,58.49
2023-05-06T18:24:47.589Z,58.41
2023-05-06T18:27:14.294Z,59.09
2023-05-06T18:29:41.729Z,60.32
2023-05-06T18:32:08.583Z,58.92
2023-05-06T18:34:35.591Z,60.05
2023-05-06T18:37:02.370Z,59.82
2023-05-06T18:39:28.949Z,59.55
2023-05-06T18:41:55.594Z,60.36
2023-05-06T18:44:22.230Z,59.80
2023-05-06T18:46:48.858Z,58.27
2023-05-06T18:49:15.525Z,60.03
2023-05-06T18:51:42.128Z,60.08
2023-05-06T18:54:08.784Z,60.31
2023-05-06T18:56:36.925Z,60.91
2023-05-06T18:59:03.700Z,59.26
2023-05-06T19:01:30.372Z,59.85
2023-05-06T19:03:57.051Z,58.96
2023-05-06T19:06:23.853Z,60.24
2023-05-06T19:08:50.687Z,61.68
2023-05-06T19:11:21.359Z,62.71
2023-05-06T19:13:48.002Z,61.76
2023-05-06T19:16:14.744Z,59.71
2023-05-06T19:18:41.871Z,58.15
2023-05-06T19:23:43.744Z,59.56
2023-05-06T19:26:13.769Z,60.82
2023-05-06T19:28:40.914Z,58.61
2023-05-06T19:31:09.620Z,60.94
2023-05-06T19:33:39.984Z,60.71
2023-05-06T19:36:07.120Z,62.06
2023-05-06T19:38:34.380Z,61.23
2023-05-06T19:41:01.527Z,61.88
2023-05-06T19:43:28.412Z,61.46
2023-05-06T19:45:55.148Z,60.30
2023-05-06T19:48:23.849Z,63.88
2023-05-06T19:50:51.726Z,62.65
2023-05-06T19:53:18.554Z,63.59
2023-05-06T19:55:45.194Z,63.73
2023-05-06T19:58:14.253Z,64.50
2023-05-06T20:00:40.998Z,65.30
2023-05-06T20:05:42.216Z,66.73
2023-05-06T20:08:11.677Z,65.59
2023-05-06T20:10:38.942Z,65.52
2023-05-06T20:13:06.672Z,67.08
2023-05-06T20:15:33.584Z,67.48
2023-05-06T20:18:00.249Z,65.64
2023-05-06T20:20:34.494Z,65.91
2023-05-06T20:23:04.208Z,66.09
2023-05-06T20:28:03.823Z,66.36
2023-05-06T20:30:30.617Z,66.60
2023-05-06T20:32:57.460Z,67.06
2023-05-06T20:35:24.363Z,68.27
2023-05-06T20:37:50.982Z,69.68
2023-05-06T20:40:17.706Z,70.91
2023-05-06T20:42:44.379Z,69.36
2023-05-06T20:45:11.435Z,69.08
2023-05-06T20:47:38.353Z,71.31
2023-05-06T20:50:05.476Z,70.42
2023-05-06T20:52:34.232Z,69.69
2023-05-06T20:55:01.256Z,71.78
2023-05-06T20:57:28.643Z,70.02
2023-05-06T20:59:56.309Z,71.09
2023-05-06T21:02:23.121Z,71.64
2023-05-06T21:04:49.913Z,70.96
2023-05-06T21:07:16.593Z,72.47
2023-05-06T21:09:43.288Z,71.51
2023-05-06T21:12:09.965Z,74.04
2023-05-06T21:14:36.581Z,75.79
2023-05-06T21:17:03.362Z,76.88
2023-05-06T21:19:30.160Z,77.21
2023-05-06T21:21:56.930Z,78.10
2023-05-06T21:24:23.567Z,78.05
2023-05-06T21:26:51.449Z,77.24
2023-05-06T21:29:18.078Z,77.59
2023-05-06T21:31:44.749Z,76.55
2023-05-06T21:34:11.414Z,77.27
2023-05-06T21:36:38.093Z,77.56
2023-05-06T21:39:09.957Z,78.02
2023-05-06T21:41:36.674Z,79.36
2023-05-06T21:44:05.650Z,79.69
2023-05-06T21:46:33.039Z,79.90
2023-05-06T21:49:00.339Z,78.26
2023-05-06T21:51:28.418Z,78.52
2023-05-06T21:53:55.143Z,80.65
2023-05-06T21:56:22.286Z,81.24
2023-05-06T21:58:49.123Z,80.71
2023-05-06T22:01:16.086Z,81.43
2023-05-06T22:03:43.728Z,82.15
2023-05-06T22:06:10.508Z,80.73
2023-05-06T22:08:37.185Z,81.75
2023-05-06T22:11:03.854Z,81.64
2023-05-06T22:13:31.379Z,82.25
2023-05-06T22:15:58.148Z,82.66
2023-05-06T22:18:25.937Z,82.00
2023-05-06T22:20:56.654Z,83.05
2023-05-06T22:23:24.556Z,84.11
2023-05-06T22:25:54.405Z,83.49
2023-05-06T22:33:30.330Z,85.37
2023-05-06T22:35:57.064Z,85.58
2023-05-06T22:38:23.702Z,85.68
2023-05-06T22:40:50.573Z,85.89
2023-05-06T22:43:17.222Z,86.23
2023-05-06T22:45:43.870Z,86.01
2023-05-06T22:48:11.065Z,86.98
2023-05-06T22:50:38.275Z,87.39
2023-05-06T22:53:14.428Z,87.56
2023-05-06T22:55:42.316Z,87.71
2023-05-06T22:58:09.044Z,87.77
2023-05-06T23:00:35.704Z,87.59
2023-05-06T23:03:03.085Z,87.01
2023-05-06T23:13:05.889Z,86.83
2023-05-06T23:15:32.860Z,86.14
2023-05-06T23:17:59.575Z,86.00
2023-05-06T23:20:26.342Z,85.98
2023-05-06T23:22:53.181Z,85.31
2023-05-06T23:25:20.300Z,85.15
2023-05-06T23:27:47.082Z,84.92
2023-05-06T23:30:13.946Z,85.39
2023-05-06T23:32:40.702Z,85.43
2023-05-06T23:35:07.910Z,86.05
2023-05-06T23:50:30.937Z,89.90
2023-05-06T23:52:57.577Z,90.47
2023-05-06T23:55:26.519Z,89.85
2023-05-06T23:57:53.221Z,89.60
